Time;durP1;ratioP1;P1;durP2;ratioP2;P2;SDS_P1;SDS_P2;PMS_P1;PMS_P2;Temp;Humidity;BMP_temperature;BMP_pressure;BME280_temperature;BME280_humidity;BME280_pressure;Samples;Min_cycle;Max_cycle;Signal;HPM_P1;HPM_P2
2021/06/02 00:02:18;;;;;;;1.05;1.05;;;;;;;16.95;30.92;100950.97;5016944;28;20071;-84
2021/06/02 00:04:51;;;;;;;1.08;0.95;;;;;;;16.93;31.10;100958.06;5016519;28;20400;-84
2021/06/02 00:07:24;;;;;;;1.00;1.00;;;;;;;16.90;30.97;100959.94;5052488;28;20747;-84
2021/06/02 00:09:54;;;;;;;0.90;0.90;;;;;;;16.88;31.30;100952.03;5018964;28;20091;-85
2021/06/02 00:12:22;;;;;;;2.03;0.95;;;;;;;16.86;31.25;100946.78;5034004;28;20176;-84
2021/06/02 00:14:48;;;;;;;0.88;0.88;;;;;;;16.86;31.40;100951.22;5041029;28;20081;-85
2021/06/02 00:17:26;;;;;;;;;;;;;;;;;;;;;
2021/06/02 00:19:55;;;;;;;1.10;1.05;;;;;;;16.79;31.75;100947.91;5015667;28;20042;-85
2021/06/02 00:22:22;;;;;;;0.95;0.90;;;;;;;16.76;31.87;100953.28;4999754;28;20514;-85
2021/06/02 00:24:51;;;;;;;1.17;1.08;;;;;;;16.70;32.01;100946.41;4998231;28;20064;-84
2021/06/02 00:27:18;;;;;;;2.28;0.90;;;;;;;16.67;32.15;100943.84;5004186;28;20068;-85
2021/06/02 00:29:51;;;;;;;1.48;1.15;;;;;;;16.63;32.29;100955.41;4999218;28;20128;-85
2021/06/02 00:32:21;;;;;;;0.80;0.80;;;;;;;16.58;32.71;100945.88;4997871;28;20073;-85
2021/06/02 00:34:53;;;;;;;0.95;0.95;;;;;;;16.52;32.66;100949.59;5011307;28;20387;-85
2021/06/02 00:37:20;;;;;;;0.80;0.80;;;;;;;16.47;32.83;100935.66;5010463;28;20053;-85
2021/06/02 00:39:52;;;;;;;3.13;1.23;;;;;;;16.43;33.02;100945.44;4994617;28;20746;-85
2021/06/02 00:42:21;;;;;;;1.92;1.27;;;;;;;16.42;33.25;100934.91;5013152;28;20052;-85
2021/06/02 00:44:51;;;;;;;3.22;1.08;;;;;;;16.40;33.48;100937.59;5012545;28;20113;-84
2021/06/02 00:47:20;;;;;;;0.95;0.95;;;;;;;16.41;33.47;100941.09;4979677;28;20100;-84
2021/06/02 00:49:51;;;;;;;2.25;1.10;;;;;;;16.41;33.48;100941.09;4999621;28;20705;-84
2021/06/02 00:52:18;;;;;;;1.50;0.90;;;;;;;16.40;33.56;100936.72;5008331;28;20049;-84
2021/06/02 00:54:52;;;;;;;0.90;0.90;;;;;;;16.36;33.89;100943.84;4984489;28;20045;-84
2021/06/02 00:57:20;;;;;;;1.38;1.30;;;;;;;16.31;34.14;100944.00;4983221;28;20053;-84
2021/06/02 01:00:07;;;;;;;1.27;1.08;;;;;;;16.25;34.41;100936.25;4998980;28;20049;-84
2021/06/02 01:02:45;;;;;;;1.10;1.00;;;;;;;16.16;34.49;100937.34;4991312;28;20038;-84
2021/06/02 01:05:14;;;;;;;1.23;1.23;;;;;;;16.08;35.13;100938.50;4979536;28;20559;-85
2021/06/02 01:07:42;;;;;;;1.10;0.93;;;;;;;16.00;35.22;100933.44;4993867;28;20063;-84
2021/06/02 01:10:10;;;;;;;0.90;0.90;;;;;;;15.89;35.61;100944.25;4984396;28;20045;-85
2021/06/02 01:12:40;;;;;;;2.33;1.15;;;;;;;15.83;35.75;100944.44;4983815;28;20081;-85
2021/06/02 01:15:12;;;;;;;2.25;1.55;;;;;;;15.78;36.04;100944.50;5010382;28;20057;-84
2021/06/02 01:17:38;;;;;;;2.35;1.08;;;;;;;15.73;36.29;100935.84;5011430;28;20099;-84
2021/06/02 01:20:11;;;;;;;1.75;1.00;;;;;;;15.70;36.38;100935.94;5011184;28;20049;-85
2021/06/02 01:22:41;;;;;;;0.93;0.80;;;;;;;15.65;36.65;100938.69;5010517;28;20076;-84
2021/06/02 01:25:22;;;;;;;1.65;1.20;;;;;;;15.63;37.19;100943.16;5028674;28;20041;-85
2021/06/02 01:27:50;;;;;;;1.27;1.15;;;;;;;15.62;37.11;100936.13;4979175;28;20049;-84
2021/06/02 01:30:22;;;;;;;1.45;1.35;;;;;;;15.61;37.01;100934.38;4982407;28;20073;-85
2021/06/02 01:33:34;;;;;;;1.45;1.40;;;;;;;15.58;37.44;100930.94;5014076;28;20049;-85
2021/06/02 01:36:07;;;;;;;0.80;0.80;;;;;;;15.50;37.89;100942.59;5019376;28;20726;-85
2021/06/02 01:39:01;;;;;;;4.78;1.80;;;;;;;15.44;37.96;100947.16;5001032;28;20045;-85
2021/06/02 01:41:44;;;;;;;5.13;1.27;;;;;;;15.36;38.44;100949.97;5031376;28;20041;-84
2021/06/02 01:44:54;;;;;;;3.47;1.88;;;;;;;15.27;39.12;100945.78;5014563;28;20049;-85
2021/06/02 01:48:06;;;;;;;1.52;1.42;;;;;;;15.17;40.09;100944.25;5017669;28;20052;-84
2021/06/02 01:51:27;;;;;;;2.60;1.42;;;;;;;15.05;40.58;100940.13;5018036;28;20562;-84
2021/06/02 01:54:40;;;;;;;1.35;1.15;;;;;;;14.91;40.52;100939.59;5030739;28;20058;-85
2021/06/02 01:57:23;;;;;;;1.95;1.77;;;;;;;14.80;41.28;100942.47;4999949;28;20045;-84
2021/06/02 02:00:35;;;;;;;2.40;1.63;;;;;;;14.76;41.79;100943.41;5032582;28;20716;-84
2021/06/02 02:03:46;;;;;;;1.40;1.30;;;;;;;14.75;42.19;100926.75;5014191;28;20049;-84
2021/06/02 02:06:33;;;;;;;2.05;1.65;;;;;;;14.80;41.85;100937.19;4984088;28;20100;-85
2021/06/02 02:09:13;;;;;;;4.68;1.58;;;;;;;14.85;41.79;100936.19;5018071;28;20046;-85
2021/06/02 02:11:43;;;;;;;3.78;1.23;;;;;;;14.89;41.76;100929.06;4983337;28;20049;-85
2021/06/02 02:14:52;;;;;;;5.45;2.05;;;;;;;14.96;42.75;100937.72;5016000;28;20049;-85
2021/06/02 02:17:49;;;;;;;3.58;1.60;;;;;;;14.99;43.17;100929.72;5001094;28;21401;-85
2021/06/02 02:20:42;;;;;;;1.38;1.38;;;;;;;15.01;42.94;100931.41;5000706;28;20045;-84
2021/06/02 02:23:46;;;;;;;5.10;1.58;;;;;;;15.02;44.16;100933.16;4983126;28;20065;-84
2021/06/02 02:26:25;;;;;;;3.50;2.45;;;;;;;14.98;43.39;100920.97;5019712;28;20046;-84
2021/06/02 02:29:40;;;;;;;3.33;1.60;;;;;;;14.92;44.65;100920.25;5015961;28;20045;-85
2021/06/02 02:33:05;;;;;;;1.65;1.55;;;;;;;14.86;45.04;100918.59;4995870;28;20806;-84
2021/06/02 02:35:51;;;;;;;2.38;1.70;;;;;;;14.80;45.66;100910.84;5015701;28;20053;-85
2021/06/02 02:39:01;;;;;;;2.80;1.50;;;;;;;14.74;46.05;100917.09;4985970;28;20443;-85
2021/06/02 02:42:04;;;;;;;1.80;1.58;;;;;;;14.68;46.49;100912.84;5001437;28;20123;-84
2021/06/02 02:45:04;;;;;;;2.83;1.55;;;;;;;14.64;46.63;100912.94;5017594;28;20052;-84
2021/06/02 02:47:39;;;;;;;2.45;2.00;;;;;;;14.60;45.88;100911.22;5012782;28;20046;-85
2021/06/02 02:50:48;;;;;;;1.50;1.40;;;;;;;14.52;46.94;100912.28;4985007;28;20084;-84
2021/06/02 02:53:32;;;;;;;1.30;1.15;;;;;;;14.45;46.76;100918.56;4982347;28;21125;-84
2021/06/02 02:56:04;;;;;;;;;;;;;;;14.34;48.29;100929.31;4983129;28;20053;-84
2021/06/02 02:59:04;;;;;;;1.77;1.60;;;;;;;14.26;48.30;100925.09;5016250;28;20387;-86
2021/06/02 03:01:45;;;;;;;2.88;1.98;;;;;;;14.17;48.96;100931.41;4995590;28;20033;-84
2021/06/02 03:04:20;;;;;;;2.60;1.90;;;;;;;14.09;48.89;100931.56;5000396;28;20064;-84
2021/06/02 03:07:06;;;;;;;4.68;2.42;;;;;;;14.01;49.90;100931.69;4997849;28;20403;-84
2021/06/02 03:09:50;;;;;;;4.32;2.08;;;;;;;13.98;50.57;100936.16;5001057;28;22917;-85
2021/06/02 03:12:24;;;;;;;;;;;;;;;13.93;51.09;100927.50;5000491;28;20119;-85
2021/06/02 03:15:37;;;;;;;4.68;2.13;;;;;;;13.88;50.64;100923.19;5021717;28;19931;-84
2021/06/02 03:18:22;;;;;;;4.18;2.13;;;;;;;13.83;51.23;100922.41;5016876;28;20076;-85
2021/06/02 03:21:02;;;;;;;2.15;1.95;;;;;;;13.80;51.49;100925.06;5035295;28;20175;-85
2021/06/02 03:23:49;;;;;;;3.05;2.10;;;;;;;13.80;51.44;100927.69;5035194;28;20043;-84
2021/06/02 03:26:21;;;;;;;3.08;2.10;;;;;;;13.80;51.78;100919.81;5018624;28;20056;-84
2021/06/02 03:29:02;;;;;;;3.08;2.08;;;;;;;13.78;53.17;100929.50;5018913;28;20053;-84
2021/06/02 03:32:07;;;;;;;5.88;2.63;;;;;;;13.77;53.44;100927.75;5033207;28;20122;-84
2021/06/02 03:35:04;;;;;;;2.85;2.05;;;;;;;13.75;53.44;100928.69;5020536;28;20052;-84
2021/06/02 03:38:23;;;;;;;2.70;2.08;;;;;;;13.69;55.58;100927.03;5021539;28;20072;-84
2021/06/02 03:41:12;;;;;;;5.28;2.38;;;;;;;13.65;55.85;100934.13;4975485;28;20603;-85
2021/06/02 03:43:56;;;;;;;4.75;2.17;;;;;;;13.64;55.63;100937.63;4974334;28;20061;-85
2021/06/02 03:47:09;;;;;;;2.97;2.25;;;;;;;13.61;56.67;100935.06;4976621;28;20105;-85
2021/06/02 03:50:06;;;;;;;5.55;2.47;;;;;;;13.61;56.95;100932.44;5007116;28;20067;-85
2021/06/02 03:53:01;;;;;;;6.20;2.58;;;;;;;13.61;57.51;100935.06;5033289;28;20121;-84
2021/06/02 03:55:36;;;;;;;;;;;;;;;13.64;57.96;100932.38;5034343;28;20063;-84
2021/06/02 03:58:14;;;;;;;2.55;2.35;;;;;;;13.66;57.23;100938.50;5035076;28;20023;-85
2021/06/02 04:01:24;;;;;;;3.45;2.28;;;;;;;13.68;58.98;100944.56;5012095;28;20045;-84
2021/06/02 04:04:02;;;;;;;3.25;2.50;;;;;;;13.69;58.36;100940.19;5042951;28;20056;-84
2021/06/02 04:07:03;;;;;;;2.92;2.63;;;;;;;13.70;59.42;100936.66;5019755;28;20055;-85
2021/06/02 04:09:41;;;;;;;4.35;2.75;;;;;;;13.68;58.32;100941.09;4998456;28;20164;-85
2021/06/02 04:12:22;;;;;;;2.40;2.20;;;;;;;13.67;59.28;100942.81;5033645;28;20075;-84
2021/06/02 04:15:00;;;;;;;8.50;2.25;;;;;;;13.67;59.06;100942.81;5000991;28;20057;-84
2021/06/02 04:17:32;;;;;;;2.90;2.28;;;;;;;13.67;58.63;100942.81;5000036;28;20047;-84
2021/06/02 04:20:04;;;;;;;1.92;1.83;;;;;;;13.72;58.58;100943.63;5047858;28;20049;-85
2021/06/02 04:22:32;;;;;;;4.28;2.40;;;;;;;13.77;58.88;100942.69;5052581;28;20063;-85
2021/06/02 04:25:04;;;;;;;9.43;3.38;;;;;;;13.82;59.78;100941.72;5017359;28;20048;-85
2021/06/02 04:27:40;;;;;;;8.82;3.15;;;;;;;13.88;60.07;100944.25;5035407;28;20041;-84
2021/06/02 04:30:20;;;;;;;2.40;2.28;;;;;;;13.93;59.43;100941.50;5049520;28;20044;-85
2021/06/02 04:33:03;;;;;;;8.25;2.63;;;;;;;13.99;59.55;100935.28;5018046;28;20049;-85
2021/06/02 04:35:32;;;;;;;4.55;2.67;;;;;;;14.00;59.31;100929.97;5034275;28;20199;-85
2021/06/02 04:38:02;;;;;;;3.63;3.17;;;;;;;14.05;59.40;100935.16;5052574;28;20053;-85
2021/06/02 04:40:33;;;;;;;5.57;3.05;;;;;;;14.11;59.40;100932.41;5003240;28;20095;-85
2021/06/02 04:43:01;;;;;;;4.72;2.80;;;;;;;14.18;59.47;100931.41;5019518;28;20053;-85
2021/06/02 04:45:32;;;;;;;3.97;3.15;;;;;;;14.25;60.00;100932.16;5034407;28;20435;-86
2021/06/02 04:48:00;;;;;;;4.95;3.15;;;;;;;14.30;59.30;100938.19;5032968;28;20059;-87
2021/06/02 04:50:43;;;;;;;5.10;3.80;;;;;;;14.36;60.07;100938.03;5005535;28;20053;-87
2021/06/02 04:53:41;;;;;;;6.00;2.75;;;;;;;14.39;59.46;100934.47;5031826;28;20048;-87
2021/06/02 04:56:51;;;;;;;3.92;2.30;;;;;;;14.41;60.40;100934.47;5051726;28;20049;-85
2021/06/02 05:00:07;;;;;;;3.60;2.92;;;;;;;14.37;60.50;100939.78;5034318;28;20163;-85
2021/06/02 05:03:01;;;;;;;16.00;3.80;;;;;;;14.30;61.43;100942.56;5051853;28;20080;-85
2021/06/02 05:06:23;;;;;;;5.55;3.50;;;;;;;14.21;61.32;100943.63;5036939;28;20045;-85
2021/06/02 05:09:26;;;;;;;6.63;3.17;;;;;;;14.16;61.81;100950.75;5039336;28;20048;-86
2021/06/02 05:12:44;;;;;;;5.72;3.55;;;;;;;14.11;62.67;100956.09;5054391;28;20095;-86
2021/06/02 05:15:44;;;;;;;6.47;3.08;;;;;;;14.07;62.91;100955.28;5052449;28;20065;-86
2021/06/02 05:19:16;;;;;;;3.67;3.30;;;;;;;14.05;63.25;100957.09;5049489;28;20495;-86
2021/06/02 05:22:47;;;;;;;5.32;3.17;;;;;;;14.03;63.92;100963.28;5016295;28;20107;-85
2021/06/02 05:25:54;;;;;;;12.63;3.17;;;;;;;14.03;63.13;100960.66;5013892;28;20052;-87
2021/06/02 05:28:52;;;;;;;3.30;2.67;;;;;;;14.02;63.90;100962.38;5034994;28;20049;-86
2021/06/02 05:32:19;;;;;;;4.30;3.55;;;;;;;14.09;64.38;100967.53;5005625;28;20049;-84
2021/06/02 05:35:14;;;;;;;6.72;4.53;;;;;;;14.13;64.32;100967.47;5032942;28;20053;-84
2021/06/02 05:38:21;;;;;;;9.55;3.55;;;;;;;14.18;63.96;100975.28;5017697;28;20055;-83
2021/06/02 05:40:55;;;;;;;5.63;3.40;;;;;;;14.18;63.56;100978.78;5033230;28;20041;-84
2021/06/02 05:44:04;;;;;;;4.15;3.70;;;;;;;14.18;64.26;100973.53;5020192;28;20450;-84
2021/06/02 05:47:11;;;;;;;7.45;3.30;;;;;;;14.21;63.91;100973.47;5017722;28;20131;-85
2021/06/02 05:50:25;;;;;;;6.53;2.97;;;;;;;14.28;63.70;100971.56;5022514;28;20083;-85
2021/06/02 05:53:29;;;;;;;6.57;3.80;;;;;;;14.39;63.47;100974.88;5038963;28;20075;-85
2021/06/02 05:56:54;;;;;;;7.07;3.55;;;;;;;14.50;63.28;100979.06;5007717;28;20291;-83
2021/06/02 05:59:57;;;;;;;7.88;2.65;;;;;;;14.59;62.68;100970.97;5037185;28;20052;-84
2021/06/02 06:03:23;;;;;;;8.48;3.67;;;;;;;14.66;63.49;100979.66;5033569;28;20059;-82
2021/06/02 06:06:44;;;;;;;6.53;4.10;;;;;;;14.74;63.13;100979.47;5019370;28;20080;-84
2021/06/02 06:09:51;;;;;;;6.05;2.92;;;;;;;14.82;62.66;100972.28;5033756;28;20048;-84
2021/06/02 06:13:22;;;;;;;5.07;3.15;;;;;;;14.83;62.64;100972.22;5020276;28;20147;-84
2021/06/02 06:16:22;;;;;;;6.60;2.88;;;;;;;14.84;62.33;100973.97;5004210;28;20527;-84
2021/06/02 06:19:16;;;;;;;6.40;3.13;;;;;;;14.91;62.28;100971.22;5020599;28;20055;-85
2021/06/02 06:22:35;;;;;;;4.68;3.22;;;;;;;15.00;62.27;100974.50;5019961;28;20073;-85
2021/06/02 06:25:28;;;;;;;10.13;3.25;;;;;;;15.15;61.72;100972.44;5000708;28;20062;-85
2021/06/02 06:28:10;;;;;;;10.30;3.25;;;;;;;15.19;61.12;100974.09;5011970;28;21997;-85
2021/06/02 06:30:40;;;;;;;5.00;3.00;;;;;;;15.26;61.18;100980.09;4999446;28;20233;-84
2021/06/02 06:33:16;;;;;;;5.55;3.25;;;;;;;15.32;60.94;100978.19;4986868;28;20053;-85
2021/06/02 06:35:55;;;;;;;;;;;;;;;;;;;;;
2021/06/02 06:39:12;;;;;;;3.58;3.25;;;;;;;15.52;60.47;100977.69;4998991;28;20057;-86
2021/06/02 06:41:44;;;;;;;4.43;2.85;;;;;;;15.57;59.81;100974.09;5002360;28;21090;-84
2021/06/02 06:44:12;;;;;;;8.18;3.67;;;;;;;15.62;59.89;100966.91;5000479;28;20037;-84
2021/06/02 06:46:39;;;;;;;5.93;3.00;;;;;;;15.67;60.00;100970.31;4989049;28;20061;-84
2021/06/02 06:49:12;;;;;;;4.72;3.58;;;;;;;15.73;59.83;100978.06;5015503;28;20037;-84
2021/06/02 06:51:42;;;;;;;4.75;2.97;;;;;;;15.80;59.55;100973.50;5000486;28;20052;-83
2021/06/02 06:54:13;;;;;;;5.22;3.25;;;;;;;15.86;59.48;100971.59;4985699;28;20050;-84
2021/06/02 06:56:41;;;;;;;8.75;3.28;;;;;;;15.92;59.24;100969.72;5019148;28;20045;-83
2021/06/02 06:59:22;;;;;;;5.57;2.97;;;;;;;16.04;59.00;100975.53;5019803;28;20045;-84
2021/06/02 07:01:52;;;;;;;8.73;3.33;;;;;;;16.23;58.18;100971.53;5000108;28;20048;-84
2021/06/02 07:04:31;;;;;;;7.15;3.05;;;;;;;16.36;57.63;100965.88;4989098;28;20136;-84
2021/06/02 07:07:01;;;;;;;3.78;2.45;;;;;;;16.47;57.38;100965.56;5002010;28;20053;-84
2021/06/02 07:09:30;;;;;;;5.57;2.58;;;;;;;16.56;56.86;100967.09;5005020;28;20076;-86
2021/06/02 07:12:01;;;;;;;7.68;2.83;;;;;;;16.60;56.85;100965.22;5021279;28;20046;-86
2021/06/02 07:14:31;;;;;;;3.05;2.45;;;;;;;16.75;56.61;100967.41;5038791;28;20042;-85
2021/06/02 07:17:04;;;;;;;5.10;2.33;;;;;;;16.94;55.56;100962.47;4991805;28;20038;-85
2021/06/02 07:19:33;;;;;;;4.33;2.40;;;;;;;17.13;54.28;100954.84;5009894;28;20814;-86
2021/06/02 07:22:03;;;;;;;4.70;2.17;;;;;;;17.38;54.11;100967.28;5008839;28;20288;-86
2021/06/02 07:24:32;;;;;;;3.58;2.50;;;;;;;17.79;53.10;100962.38;5005143;28;20129;-85
2021/06/02 07:27:01;;;;;;;5.22;2.45;;;;;;;18.19;52.02;100954.84;5010060;28;20050;-85
2021/06/02 07:29:32;;;;;;;3.97;2.42;;;;;;;18.58;50.89;100970.22;4991304;28;20074;-84
2021/06/02 07:32:03;;;;;;;2.92;2.00;;;;;;;19.10;49.53;100978.00;4990846;28;20052;-83
2021/06/02 07:34:30;;;;;;;4.43;2.15;;;;;;;19.53;48.57;100970.09;5009091;28;20049;-83
2021/06/02 07:37:04;;;;;;;4.70;2.28;;;;;;;19.95;47.42;100966.56;5007846;28;20092;-84
2021/06/02 07:39:32;;;;;;;5.18;2.30;;;;;;;20.11;46.48;100966.75;5009049;28;20052;-83
2021/06/02 07:42:03;;;;;;;6.40;2.10;;;;;;;20.31;45.90;100971.19;5004627;28;20044;-83
2021/06/02 07:44:33;;;;;;;3.15;2.58;;;;;;;20.73;45.30;100969.34;5005150;28;20057;-83
2021/06/02 07:47:04;;;;;;;2.88;2.28;;;;;;;21.14;44.08;100963.84;5005272;28;20136;-83
2021/06/02 07:49:32;;;;;;;2.67;1.73;;;;;;;21.48;43.26;100970.19;4990537;28;20085;-84
2021/06/02 07:52:05;;;;;;;2.60;1.85;;;;;;;21.51;42.84;100965.63;5006168;28;20029;-83
2021/06/02 07:54:31;;;;;;;3.25;1.90;;;;;;;21.60;42.66;100974.06;5007169;28;20041;-84
2021/06/02 07:57:02;;;;;;;2.92;2.00;;;;;;;21.79;41.80;100966.00;5004883;28;20048;-84
2021/06/02 07:59:31;;;;;;;6.97;2.00;;;;;;;22.01;41.76;100967.56;5006436;28;20045;-84
2021/06/02 08:02:02;;;;;;;3.55;2.17;;;;;;;22.54;40.81;100968.38;5007205;28;20065;-83
2021/06/02 08:04:32;;;;;;;3.22;1.83;;;;;;;23.01;38.93;100964.00;4989662;28;20052;-84
2021/06/02 08:07:04;;;;;;;4.20;2.03;;;;;;;23.10;39.25;100974.16;4992416;28;20411;-83
2021/06/02 08:09:38;;;;;;;5.95;2.28;;;;;;;22.98;39.40;100964.16;5006801;28;20140;-85
2021/06/02 08:12:11;;;;;;;7.55;2.03;;;;;;;23.05;39.24;100970.00;5009722;28;20500;-83
2021/06/02 08:14:41;;;;;;;6.10;2.45;;;;;;;22.61;39.70;100975.06;4987945;28;20060;-83
2021/06/02 08:17:08;;;;;;;3.22;2.13;;;;;;;22.94;39.11;100974.19;5018801;28;20046;-83
2021/06/02 08:19:40;;;;;;;4.28;3.05;;;;;;;23.03;39.27;100977.25;5002532;28;20060;-84
2021/06/02 08:22:08;;;;;;;2.67;2.47;;;;;;;23.01;39.15;100972.03;5015755;28;20435;-84
2021/06/02 08:24:39;;;;;;;4.68;3.28;;;;;;;23.36;38.30;100971.84;4985161;28;20939;-83
2021/06/02 08:27:11;;;;;;;3.85;2.80;;;;;;;23.80;37.77;100975.53;5017101;28;20143;-84
2021/06/02 08:29:38;;;;;;;6.28;2.88;;;;;;;24.52;36.36;100980.13;4999898;28;20041;-83
2021/06/02 08:32:07;;;;;;;3.55;2.83;;;;;;;24.86;35.44;100978.91;4983787;28;20048;-84
2021/06/02 08:34:34;;;;;;;2.92;2.72;;;;;;;25.28;34.77;100978.88;5001219;28;20049;-84
2021/06/02 08:37:01;;;;;;;4.15;2.50;;;;;;;25.98;33.94;100972.41;5018344;28;20861;-84
2021/06/02 08:39:32;;;;;;;2.72;2.53;;;;;;;26.81;32.66;100978.34;5000586;28;20858;-84
2021/06/02 08:41:59;;;;;;;4.28;2.80;;;;;;;27.37;31.19;100983.19;5003207;28;20041;-84
2021/06/02 08:44:26;;;;;;;3.25;2.72;;;;;;;27.51;31.01;100987.56;5000419;28;20037;-83
2021/06/02 08:46:53;;;;;;;2.85;2.65;;;;;;;27.66;30.83;100978.31;4998256;28;20394;-85
2021/06/02 08:49:24;;;;;;;2.78;2.40;;;;;;;28.14;30.10;100977.34;5014636;28;20060;-86
2021/06/02 08:52:10;;;;;;;5.32;2.33;;;;;;;28.23;28.93;100973.09;5011835;28;20149;-84
2021/06/02 08:54:38;;;;;;;3.90;2.67;;;;;;;28.07;29.48;100970.75;4999838;28;20041;-84
2021/06/02 08:57:11;;;;;;;4.00;3.17;;;;;;;27.41;30.41;100984.69;4997689;28;20571;-83
2021/06/02 08:59:38;;;;;;;6.30;3.33;;;;;;;27.22;30.48;100972.59;5031123;28;20045;-83
2021/06/02 09:02:07;;;;;;;5.05;3.13;;;;;;;27.67;30.55;100981.88;4995664;28;20068;-83
2021/06/02 09:04:34;;;;;;;5.80;3.08;;;;;;;27.75;29.72;100982.13;5015710;28;20064;-83
2021/06/02 09:07:08;;;;;;;4.18;3.70;;;;;;;28.58;29.26;100971.25;4998597;28;20119;-84
2021/06/02 09:09:37;;;;;;;4.68;3.35;;;;;;;29.48;28.24;100971.09;4997723;28;20071;-84
2021/06/02 09:12:12;;;;;;;3.97;3.60;;;;;;;29.76;27.11;100973.31;4996869;28;20096;-86
2021/06/02 09:14:43;;;;;;;3.30;3.00;;;;;;;29.90;27.35;100969.47;5014853;28;20049;-85
2021/06/02 09:17:12;;;;;;;4.00;3.10;;;;;;;30.22;26.82;100968.50;4988119;28;20041;-84
2021/06/02 09:19:53;;;;;;;5.20;2.78;;;;;;;30.10;26.88;100967.72;5017057;28;21096;-84
2021/06/02 09:22:23;;;;;;;6.53;3.70;;;;;;;29.83;27.16;100971.81;5004502;28;20064;-83
2021/06/02 09:25:04;;;;;;;5.13;3.40;;;;;;;29.59;27.56;100966.66;5000316;28;20140;-85
2021/06/02 09:27:53;;;;;;;4.60;3.53;;;;;;;28.88;28.66;100960.72;4986048;28;20124;-85
2021/06/02 09:30:31;;;;;;;7.55;3.65;;;;;;;29.05;28.50;100966.56;4988418;28;20045;-83
2021/06/02 09:33:01;;;;;;;3.67;3.05;;;;;;;29.80;27.77;100966.66;5005297;28;20047;-84
2021/06/02 09:35:44;;;;;;;3.40;3.10;;;;;;;30.43;26.77;100963.91;5000422;28;20053;-84
2021/06/02 09:38:26;;;;;;;4.30;3.90;;;;;;;30.80;26.02;100960.63;5003871;28;20053;-85
2021/06/02 09:41:01;;;;;;;4.50;3.75;;;;;;;30.87;26.08;100960.09;5004053;28;20045;-85
2021/06/02 09:43:35;;;;;;;4.50;3.63;;;;;;;31.43;25.71;100962.19;5019001;28;20060;-85
2021/06/02 09:46:14;;;;;;;3.97;2.85;;;;;;;32.04;24.90;100959.25;5004555;28;20060;-84
2021/06/02 09:48:51;;;;;;;4.57;3.20;;;;;;;31.92;25.14;100970.25;4986999;28;20046;-84
2021/06/02 09:51:39;;;;;;;3.90;3.53;;;;;;;31.79;25.12;100964.31;5021217;28;20530;-84
2021/06/02 09:54:11;;;;;;;4.25;3.85;;;;;;;32.53;24.23;100968.09;5007991;28;20049;-84
2021/06/02 09:56:45;;;;;;;5.75;4.15;;;;;;;32.40;23.87;100968.44;5007849;28;20057;-84
2021/06/02 09:59:14;;;;;;;4.13;3.83;;;;;;;33.12;23.42;100967.75;5007881;28;20479;-85
2021/06/02 10:02:01;;;;;;;8.18;3.22;;;;;;;33.27;23.37;100968.09;5006054;28;20049;-84
2021/06/02 10:04:39;;;;;;;3.80;3.35;;;;;;;32.92;23.62;100976.03;5022958;28;20091;-84
2021/06/02 10:07:21;;;;;;;6.15;4.18;;;;;;;33.26;23.14;100966.38;4994019;28;20042;-84
2021/06/02 10:09:52;;;;;;;5.32;3.80;;;;;;;32.71;24.01;100961.84;5005135;28;20736;-85
2021/06/02 10:12:23;;;;;;;3.90;3.55;;;;;;;33.05;23.46;100970.25;5021855;28;20055;-84
2021/06/02 10:14:59;;;;;;;4.20;4.00;;;;;;;33.47;22.87;100969.66;5008681;28;20049;-84
2021/06/02 10:17:32;;;;;;;4.43;3.60;;;;;;;33.80;22.46;100969.09;5014342;28;20124;-83
2021/06/02 10:20:07;;;;;;;8.70;3.90;;;;;;;33.20;23.27;100972.41;5016510;28;20042;-84
2021/06/02 10:22:42;;;;;;;5.70;3.22;;;;;;;33.28;22.88;100962.53;4998282;28;20052;-84
2021/06/02 10:25:11;;;;;;;4.70;3.97;;;;;;;33.46;22.28;100967.94;5004485;28;20049;-84
2021/06/02 10:27:41;;;;;;;4.60;4.20;;;;;;;33.29;22.38;100979.66;5018229;28;20076;-84
2021/06/02 10:30:13;;;;;;;4.40;4.00;;;;;;;33.15;22.25;100986.44;5015528;28;20083;-84
2021/06/02 10:32:45;;;;;;;4.35;3.95;;;;;;;33.76;22.08;100978.53;5002463;28;20045;-84
2021/06/02 10:35:12;;;;;;;5.28;4.15;;;;;;;34.13;21.83;100983.75;5035073;28;20068;-84
2021/06/02 10:37:42;;;;;;;5.32;3.80;;;;;;;34.08;21.61;100985.22;5003131;28;20136;-84
2021/06/02 10:40:24;;;;;;;8.63;7.88;;;;;;;34.35;21.70;100970.63;5018418;28;20540;-83
2021/06/02 10:43:03;;;;;;;5.53;3.90;;;;;;;34.62;21.00;100972.28;5002967;28;20607;-84
2021/06/02 10:45:43;;;;;;;4.15;2.95;;;;;;;35.24;20.57;100973.84;5016770;28;20045;-84
2021/06/02 10:48:12;;;;;;;6.13;3.65;;;;;;;35.27;20.79;100975.38;4986544;28;20049;-84
2021/06/02 10:50:44;;;;;;;4.80;3.65;;;;;;;35.74;20.20;100977.44;5015266;28;20041;-84
2021/06/02 10:53:25;;;;;;;5.63;3.80;;;;;;;36.47;19.76;100972.03;5017197;28;20415;-85
2021/06/02 10:56:02;;;;;;;4.22;3.42;;;;;;;36.38;19.68;100968.50;5020125;28;20080;-84
2021/06/02 10:58:56;;;;;;;;;;;;;;;;;;;;;
2021/06/02 11:01:25;;;;;;;3.50;2.88;;;;;;;37.55;18.99;100975.84;5031687;28;20038;-84
2021/06/02 11:04:11;;;;;;;5.10;3.65;;;;;;;37.17;18.69;100967.59;4981114;28;20136;-84
2021/06/02 11:06:44;;;;;;;3.50;3.10;;;;;;;37.38;18.66;100960.66;5001549;28;20045;-84
2021/06/02 11:09:16;;;;;;;3.42;3.13;;;;;;;37.55;18.65;100966.81;4982962;28;20057;-84
2021/06/02 11:11:46;;;;;;;4.68;4.13;;;;;;;36.67;19.34;100980.63;5014420;28;20599;-84
2021/06/02 11:14:15;;;;;;;3.90;3.47;;;;;;;37.11;19.25;100970.19;4999890;28;20168;-83
2021/06/02 11:17:00;;;;;;;6.25;3.42;;;;;;;37.22;18.90;100969.75;5028707;28;20057;-83
2021/06/02 11:19:42;;;;;;;2.90;2.70;;;;;;;37.68;18.32;100966.16;4987827;28;20594;-84
2021/06/02 11:22:31;;;;;;;4.82;3.13;;;;;;;38.09;17.42;100971.25;4997212;28;20181;-82
2021/06/02 11:25:02;;;;;;;4.40;3.05;;;;;;;38.04;18.14;100969.09;4981940;28;20084;-84
2021/06/02 11:27:34;;;;;;;3.47;3.17;;;;;;;38.20;17.72;100976.25;5016525;28;20044;-84
2021/06/02 11:30:15;;;;;;;;;;;;;;;;;;;;;
2021/06/02 11:32:51;;;;;;;3.05;2.80;;;;;;;36.98;18.87;100968.91;4984157;28;22430;-85
2021/06/02 11:35:19;;;;;;;3.53;2.50;;;;;;;37.91;18.57;100963.41;5000713;28;20393;-85
2021/06/02 11:37:47;;;;;;;3.17;2.97;;;;;;;38.67;17.37;100963.22;5017379;28;20905;-85
2021/06/02 11:40:25;;;;;;;3.35;2.90;;;;;;;38.81;17.59;100968.88;5032909;28;20575;-86
2021/06/02 11:42:52;;;;;;;3.28;2.92;;;;;;;39.09;16.91;100976.31;4999115;28;20059;-85
2021/06/02 11:45:26;;;;;;;5.30;3.05;;;;;;;38.68;17.96;100967.66;5033422;28;20529;-85
2021/06/02 11:48:03;;;;;;;3.20;2.88;;;;;;;37.48;18.98;100972.13;4988659;28;20049;-83
2021/06/02 11:50:34;;;;;;;7.07;3.08;;;;;;;38.32;18.34;100968.44;5016932;28;20115;-83
2021/06/02 11:53:03;;;;;;;5.63;4.13;;;;;;;39.17;17.57;100968.00;5034859;28;20058;-83
2021/06/02 11:55:35;;;;;;;3.17;2.88;;;;;;;39.98;16.64;100966.81;4983714;28;20818;-83
2021/06/02 11:58:02;;;;;;;3.03;2.90;;;;;;;39.95;16.51;100969.94;5035473;28;20045;-84
2021/06/02 12:00:33;;;;;;;3.17;2.97;;;;;;;38.75;16.91;100965.03;5015156;28;20787;-85
2021/06/02 12:03:11;;;;;;;3.08;2.10;;;;;;;39.08;17.53;100972.75;5000953;28;20038;-84
2021/06/02 12:05:43;;;;;;;4.45;2.70;;;;;;;39.66;17.06;100966.34;5014996;28;22475;-84
2021/06/02 12:08:16;;;;;;;5.50;3.25;;;;;;;38.84;17.40;100961.13;5015725;28;20042;-84
2021/06/02 12:10:51;;;;;;;3.55;3.25;;;;;;;38.87;17.63;100955.25;4986696;28;20099;-85
2021/06/02 12:13:51;;;;;;;4.22;3.40;;;;;;;37.39;18.46;100965.91;4999506;28;20045;-85
2021/06/02 12:16:34;;;;;;;2.70;2.50;;;;;;;38.25;18.09;100962.00;4971181;28;20053;-84
2021/06/02 12:19:01;;;;;;;2.90;2.70;;;;;;;38.85;17.55;100956.47;4999241;28;20049;-84
2021/06/02 12:21:32;;;;;;;2.63;2.40;;;;;;;38.86;16.88;100961.75;5001347;28;20121;-85
2021/06/02 12:24:26;;;;;;;;;;;;;;;;;;;;;
2021/06/02 12:26:56;;;;;;;2.78;2.58;;;;;;;38.93;17.21;100956.38;5011040;28;20063;-84
2021/06/02 12:29:32;;;;;;;5.30;2.95;;;;;;;39.70;16.41;100946.59;5000121;28;20041;-84
2021/06/02 12:32:01;;;;;;;4.53;2.55;;;;;;;40.43;15.97;100953.59;5015845;28;20057;-85
2021/06/02 12:34:36;;;;;;;3.80;3.15;;;;;;;41.04;15.40;100949.16;4983866;28;20053;-85
2021/06/02 12:37:13;;;;;;;6.00;2.85;;;;;;;39.79;16.09;100958.25;5014698;28;20099;-85